createdAt,value
2018-12-17T00:01:15.018Z,95120.34
2018-12-17T00:03:41.354Z,95122.37
2018-12-17T00:06:07.738Z,95122.45
2018-12-17T00:08:34.137Z,95124.94
2018-12-17T00:11:00.474Z,95118.62
2018-12-17T00:13:26.856Z,95110.59
2018-12-17T00:15:55.285Z,95107.39
2018-12-17T00:18:19.527Z,95113.23
2018-12-17T00:20:45.918Z,95114.44
2018-12-17T00:23:12.247Z,95117.89
2018-12-17T00:25:38.628Z,95119.89
2018-12-17T00:28:08.102Z,95125.12
2018-12-17T00:30:31.386Z,95132.34
2018-12-17T00:32:57.738Z,95121.80
2018-12-17T00:35:24.047Z,95116.06
2018-12-17T00:37:50.503Z,95117.33
2018-12-17T00:40:16.846Z,95133.42
2018-12-17T00:42:43.178Z,95134.25
2018-12-17T00:45:09.519Z,95135.61
2018-12-17T00:47:35.946Z,95136.81
2018-12-17T00:52:47.609Z,95144.38
2018-12-17T00:55:14.006Z,95148.40
2018-12-17T00:57:40.350Z,95142.83
2018-12-17T01:00:06.767Z,95144.19
2018-12-17T01:02:33.190Z,95149.67
2018-12-17T01:04:59.522Z,95152.05
2018-12-17T01:07:25.903Z,95146.52
2018-12-17T01:09:52.240Z,95148.14
2018-12-17T01:12:18.643Z,95143.66
2018-12-17T01:14:45.002Z,95141.62
2018-12-17T01:17:11.400Z,95140.91
2018-12-17T01:19:37.759Z,95143.46
2018-12-17T01:22:04.086Z,95136.52
2018-12-17T01:24:30.495Z,95128.04
2018-12-17T01:26:56.824Z,95120.06
2018-12-17T01:29:23.225Z,95118.42
2018-12-17T01:31:49.725Z,95118.25
2018-12-17T01:34:16.074Z,95120.98
2018-12-17T01:36:42.457Z,95115.70
2018-12-17T01:39:08.849Z,95110.67
2018-12-17T01:41:35.146Z,95112.48
2018-12-17T01:44:01.497Z,95095.22
2018-12-17T01:46:27.879Z,95084.91
2018-12-17T01:48:54.207Z,95094.88
2018-12-17T01:51:20.574Z,95086.45
2018-12-17T01:53:46.904Z,95088.28
2018-12-17T01:56:13.299Z,95085.01
2018-12-17T01:58:39.670Z,95084.34
2018-12-17T02:01:06.057Z,95084.53
2018-12-17T02:03:32.474Z,95082.98
2018-12-17T02:06:01.294Z,95077.05
2018-12-17T02:08:27.625Z,95074.22
2018-12-17T02:10:53.968Z,95072.30
2018-12-17T02:13:20.409Z,95066.63
2018-12-17T02:15:46.767Z,95071.75
2018-12-17T02:18:13.101Z,95067.99
2018-12-17T02:20:39.462Z,95068.81
2018-12-17T02:23:05.805Z,95073.71
2018-12-17T02:25:32.134Z,95070.91
2018-12-17T02:27:58.525Z,95070.15
2018-12-17T02:30:24.926Z,95071.05
2018-12-17T02:32:51.303Z,95062.91
2018-12-17T02:35:17.638Z,95063.61
2018-12-17T02:37:44.052Z,95062.05
2018-12-17T02:40:10.518Z,95058.38
2018-12-17T02:42:37.062Z,95058.36
2018-12-17T02:45:03.486Z,95058.17
2018-12-17T02:47:29.818Z,95065.66
2018-12-17T02:49:56.186Z,95067.00
2018-12-17T02:52:22.648Z,95060.85
2018-12-17T02:54:48.951Z,95064.95
2018-12-17T02:57:15.353Z,95063.39
2018-12-17T02:59:41.778Z,95072.42
2018-12-17T03:02:08.188Z,95066.18
2018-12-17T03:04:34.572Z,95076.50
2018-12-17T03:07:01.082Z,95073.59
2018-12-17T03:09:27.461Z,95078.66
2018-12-17T03:11:53.842Z,95072.66
2018-12-17T03:14:20.256Z,95070.97
2018-12-17T03:16:46.581Z,95073.65
2018-12-17T03:19:13.088Z,95077.66
2018-12-17T03:21:39.449Z,95078.75
2018-12-17T03:24:05.887Z,95078.63
2018-12-17T03:26:32.280Z,95075.98
2018-12-17T03:28:58.648Z,95074.95
2018-12-17T03:31:24.976Z,95077.68
2018-12-17T03:33:51.409Z,95083.72
2018-12-17T03:36:17.788Z,95077.11
2018-12-17T03:38:44.129Z,95078.19
2018-12-17T03:41:10.478Z,95084.23
2018-12-17T03:43:36.848Z,95084.85
2018-12-17T03:46:03.184Z,95080.09
2018-12-17T03:48:29.568Z,95082.00
2018-12-17T03:50:55.896Z,95086.92
2018-12-17T03:53:22.310Z,95081.95
2018-12-17T03:55:48.639Z,95078.45
2018-12-17T03:58:15.139Z,95087.50
2018-12-17T04:00:41.556Z,95089.95
2018-12-17T04:03:07.830Z,95086.35
2018-12-17T04:05:34.170Z,95082.58
2018-12-17T04:08:00.497Z,95081.09
2018-12-17T04:10:26.845Z,95090.20
2018-12-17T04:12:53.322Z,95092.77
2018-12-17T04:15:19.882Z,95090.36
2018-12-17T04:17:46.385Z,95096.02
2018-12-17T04:20:12.732Z,95098.63
2018-12-17T04:22:39.131Z,95090.94
2018-12-17T04:25:05.474Z,95097.72
2018-12-17T04:27:31.904Z,95102.55
2018-12-17T04:29:58.291Z,95100.05
2018-12-17T04:32:24.667Z,95093.19
2018-12-17T04:34:51.068Z,95097.77
2018-12-17T04:37:17.562Z,95098.55
2018-12-17T04:39:43.978Z,95109.58
2018-12-17T04:42:10.356Z,95106.48
2018-12-17T04:44:36.668Z,95105.09
2018-12-17T04:47:03.014Z,95103.25
2018-12-17T04:49:29.370Z,95112.17
2018-12-17T04:51:55.882Z,95106.58
2018-12-17T04:54:22.210Z,95104.61
2018-12-17T04:56:48.643Z,95104.05
2018-12-17T04:59:15.096Z,95107.42
2018-12-17T05:01:41.452Z,95107.46
2018-12-17T05:04:10.466Z,95105.22
2018-12-17T05:06:36.829Z,95107.56
2018-12-17T05:09:03.225Z,95100.58
2018-12-17T05:11:29.623Z,95106.88
2018-12-17T05:13:55.984Z,95106.56
2018-12-17T05:16:22.566Z,95104.58
2018-12-17T05:18:48.917Z,95105.88
2018-12-17T05:21:15.263Z,95106.93
2018-12-17T05:23:41.720Z,95105.05
2018-12-17T05:26:08.088Z,95100.03
2018-12-17T05:28:34.479Z,95108.13
2018-12-17T05:31:00.890Z,95109.28
2018-12-17T05:33:27.238Z,95106.95
2018-12-17T05:35:53.634Z,95105.33
2018-12-17T05:38:19.943Z,95105.79
2018-12-17T05:40:46.318Z,95107.34
2018-12-17T05:43:12.780Z,95110.38
2018-12-17T05:45:39.172Z,95103.16
2018-12-17T05:48:05.568Z,95106.66
2018-12-17T05:50:34.407Z,95103.16
2018-12-17T05:52:58.322Z,95105.50
2018-12-17T05:55:24.655Z,95103.52
2018-12-17T05:57:51.051Z,95103.62
2018-12-17T06:00:17.869Z,95104.34
2018-12-17T06:02:44.317Z,95109.95
2018-12-17T06:05:10.650Z,95107.87
2018-12-17T06:07:36.975Z,95108.44
2018-12-17T06:10:03.322Z,95111.48
2018-12-17T06:12:29.673Z,95109.40
2018-12-17T06:14:56.173Z,95107.48
2018-12-17T06:17:22.501Z,95109.59
2018-12-17T06:19:48.923Z,95113.95
2018-12-17T06:22:15.219Z,95112.89
2018-12-17T06:24:41.649Z,95108.94
2018-12-17T06:27:08.016Z,95112.20
2018-12-17T06:29:35.695Z,95113.39
2018-12-17T06:32:00.825Z,95115.14
2018-12-17T06:34:27.175Z,95120.16
2018-12-17T06:36:53.583Z,95118.17
2018-12-17T06:39:19.940Z,95119.83
2018-12-17T06:41:46.451Z,95113.38
2018-12-17T06:44:12.779Z,95119.83
2018-12-17T06:46:39.385Z,95111.99
2018-12-17T06:49:05.730Z,95110.24
2018-12-17T06:51:32.115Z,95112.58
2018-12-17T06:53:58.534Z,95108.72
2018-12-17T06:56:24.865Z,95105.55
2018-12-17T06:58:51.257Z,95118.66
2018-12-17T07:01:17.652Z,95114.33
2018-12-17T07:03:44.054Z,95109.54
2018-12-17T07:06:10.457Z,95105.66
2018-12-17T07:08:36.862Z,95110.58
2018-12-17T07:11:03.397Z,95110.34
2018-12-17T07:13:29.634Z,95113.20
2018-12-17T07:15:56.032Z,95108.81
2018-12-17T07:18:22.395Z,95115.78
2018-12-17T07:20:49.018Z,95119.17
2018-12-17T07:23:16.495Z,95118.13
2018-12-17T07:25:42.848Z,95116.00
2018-12-17T07:28:09.234Z,95111.55
2018-12-17T07:30:37.265Z,95124.06
2018-12-17T07:33:03.619Z,95115.98
2018-12-17T07:35:30.021Z,95117.75
2018-12-17T07:37:56.421Z,95120.55
2018-12-17T07:40:22.802Z,95119.25
2018-12-17T07:42:49.214Z,95124.89
2018-12-17T07:45:15.566Z,95120.20
2018-12-17T07:47:41.998Z,95116.94
2018-12-17T07:50:08.429Z,95123.36
2018-12-17T07:52:34.963Z,95127.70
2018-12-17T07:55:01.391Z,95124.63
2018-12-17T07:57:28.354Z,95123.72
2018-12-17T07:59:56.889Z,95127.94
2018-12-17T08:02:21.208Z,95122.07
2018-12-17T08:04:47.600Z,95123.91
2018-12-17T08:07:14.001Z,95122.61
2018-12-17T08:09:40.394Z,95122.51
2018-12-17T08:12:06.758Z,95118.75
2018-12-17T08:14:33.283Z,95129.16
2018-12-17T08:16:59.707Z,95129.27
2018-12-17T08:19:26.078Z,95125.38
2018-12-17T08:21:52.434Z,95123.55
2018-12-17T08:24:18.917Z,95129.51
2018-12-17T08:26:45.337Z,95134.42
2018-12-17T08:29:11.866Z,95123.25
2018-12-17T08:31:38.208Z,95124.34
2018-12-17T08:34:04.597Z,95121.02
2018-12-17T08:36:30.967Z,95124.52
2018-12-17T08:38:57.381Z,95116.19
2018-12-17T08:41:23.818Z,95113.72
2018-12-17T08:43:50.145Z,95112.07
2018-12-17T08:46:16.523Z,95112.57
2018-12-17T08:48:43.626Z,95113.50
2018-12-17T08:51:09.854Z,95110.14
2018-12-17T08:53:36.231Z,95112.00
2018-12-17T08:56:02.648Z,95109.06
2018-12-17T08:58:29.162Z,95104.16
2018-12-17T09:00:55.571Z,95099.52
2018-12-17T09:03:22.359Z,95104.07
2018-12-17T09:05:48.775Z,95101.31
2018-12-17T09:08:15.105Z,95099.59
2018-12-17T09:10:41.510Z,95094.56
2018-12-17T09:13:08.473Z,95099.41
2018-12-17T09:15:35.015Z,95096.89
2018-12-17T09:18:01.401Z,95098.61
2018-12-17T09:20:27.899Z,95093.59
2018-12-17T09:22:54.341Z,95087.48
2018-12-17T09:25:20.736Z,95094.63
2018-12-17T09:27:47.128Z,95089.26
2018-12-17T09:30:18.372Z,95089.97
2018-12-17T09:32:39.978Z,95087.97
2018-12-17T09:35:06.323Z,95087.43
2018-12-17T09:37:32.731Z,95086.72
2018-12-17T09:39:59.129Z,95089.36
2018-12-17T09:42:25.564Z,95081.97
2018-12-17T09:44:51.917Z,95089.11
2018-12-17T09:47:18.300Z,95080.94
2018-12-17T09:49:44.770Z,95078.29
2018-12-17T09:52:11.188Z,95075.63
2018-12-17T09:54:37.490Z,95074.48
2018-12-17T09:57:03.859Z,95070.91
2018-12-17T09:59:30.523Z,95063.68
2018-12-17T10:01:56.967Z,95067.80
2018-12-17T10:04:23.398Z,95058.94
2018-12-17T10:06:49.848Z,95058.16
2018-12-17T10:09:16.241Z,95051.55
2018-12-17T10:11:42.803Z,95052.94
2018-12-17T10:14:09.213Z,95042.48
2018-12-17T10:16:35.686Z,95043.59
2018-12-17T10:19:02.041Z,95038.00
2018-12-17T10:21:28.416Z,95042.50
2018-12-17T10:23:54.828Z,95033.00
2018-12-17T10:26:21.266Z,95027.10
2018-12-17T10:28:47.670Z,95024.36
2018-12-17T10:31:14.029Z,95019.45
2018-12-17T10:33:40.390Z,95018.91
2018-12-17T10:36:06.799Z,95015.23
2018-12-17T10:38:33.190Z,95020.72
2018-12-17T10:40:59.791Z,95017.58
2018-12-17T10:43:26.309Z,95014.56
2018-12-17T10:45:52.753Z,95012.15
2018-12-17T10:48:19.079Z,95012.15
2018-12-17T10:50:45.674Z,95008.27
2018-12-17T10:53:11.934Z,95006.69
2018-12-17T10:55:38.468Z,95006.98
2018-12-17T10:58:04.837Z,95007.92
2018-12-17T11:00:39.281Z,95006.21
2018-12-17T11:02:59.911Z,95009.61
2018-12-17T11:05:26.390Z,95003.74
2018-12-17T11:07:52.822Z,94998.41
2018-12-17T11:10:19.236Z,94991.90
2018-12-17T11:12:45.652Z,94998.15
2018-12-17T11:15:15.034Z,94994.48
2018-12-17T11:17:42.631Z,94996.28
2018-12-17T11:20:09.211Z,94992.81
2018-12-17T11:22:36.914Z,94995.98
2018-12-17T11:25:03.449Z,94990.23
2018-12-17T11:27:29.865Z,94987.64
2018-12-17T11:29:56.395Z,94984.39
2018-12-17T11:32:22.868Z,94988.00
2018-12-17T11:34:49.470Z,94988.53
2018-12-17T11:37:15.870Z,94986.50
2018-12-17T11:39:42.234Z,94986.56
2018-12-17T11:42:08.655Z,94986.65
2018-12-17T11:44:35.125Z,94994.73
2018-12-17T11:47:01.523Z,94990.09
2018-12-17T11:49:27.960Z,94990.41
2018-12-17T11:51:56.780Z,94984.92
2018-12-17T11:54:22.973Z,94986.88
2018-12-17T11:56:49.881Z,94983.30
2018-12-17T11:59:16.455Z,94976.75
2018-12-17T12:01:42.818Z,94976.91
2018-12-17T12:04:09.252Z,94979.34
2018-12-17T12:06:35.621Z,94978.92
2018-12-17T12:09:02.144Z,94980.42
2018-12-17T12:11:28.595Z,94981.62
2018-12-17T12:13:55.084Z,94978.86
2018-12-17T12:16:21.519Z,94974.31
2018-12-17T12:18:48.982Z,94978.45
2018-12-17T12:21:15.489Z,94978.78
2018-12-17T12:23:42.021Z,94984.92
2018-12-17T12:26:08.434Z,94988.67
2018-12-17T12:28:35.061Z,94990.27
2018-12-17T12:31:01.406Z,94993.70
2018-12-17T12:33:27.859Z,94987.09
2018-12-17T12:35:54.302Z,94988.59
2018-12-17T12:38:20.671Z,94986.83
2018-12-17T12:40:47.005Z,94987.44
2018-12-17T12:43:13.861Z,94985.23
2018-12-17T12:45:40.295Z,94994.11
2018-12-17T12:48:06.832Z,94992.41
2018-12-17T12:50:33.387Z,94986.02
2018-12-17T12:52:59.808Z,94985.91
2018-12-17T12:55:26.253Z,94989.23
2018-12-17T12:57:53.161Z,94981.95
2018-12-17T13:00:19.561Z,94983.30
2018-12-17T13:02:46.101Z,94982.95
2018-12-17T13:05:12.637Z,94984.80
2018-12-17T13:07:39.101Z,94986.52
2018-12-17T13:10:05.528Z,94990.14
2018-12-17T13:12:31.904Z,94990.96
2018-12-17T13:14:58.310Z,94988.55
2018-12-17T13:17:24.734Z,94985.80
2018-12-17T13:19:51.642Z,94921.85
2018-12-17T13:22:17.969Z,94987.53
2018-12-17T13:24:44.480Z,94991.19
2018-12-17T13:27:10.937Z,94988.38
2018-12-17T13:29:37.381Z,94987.11
2018-12-17T13:32:03.744Z,94961.39
2018-12-17T13:34:30.266Z,95006.50
2018-12-17T13:36:56.637Z,95004.00
2018-12-17T13:39:23.170Z,95000.22
2018-12-17T13:41:49.751Z,95004.71
2018-12-17T13:44:19.430Z,95008.53
2018-12-17T13:46:45.518Z,95009.17
2018-12-17T13:49:15.328Z,95004.18
2018-12-17T13:51:44.577Z,95007.52
2018-12-17T13:54:08.606Z,95013.41
2018-12-17T13:56:35.014Z,95011.55
2018-12-17T13:59:01.502Z,95012.70
2018-12-17T14:01:27.872Z,95019.60
2018-12-17T14:03:54.359Z,95023.19
2018-12-17T14:06:20.826Z,95025.86
2018-12-17T14:08:47.217Z,95026.56
2018-12-17T14:11:13.657Z,95021.63
2018-12-17T14:13:40.183Z,95022.27
2018-12-17T14:16:06.696Z,95024.13
2018-12-17T14:18:33.097Z,95024.27
2018-12-17T14:20:59.483Z,95018.66
2018-12-17T14:23:25.901Z,95021.16
2018-12-17T14:25:52.366Z,95020.80
2018-12-17T14:28:21.601Z,95030.06
2018-12-17T14:30:47.863Z,95029.77
2018-12-17T14:33:14.284Z,95034.73
2018-12-17T14:35:40.718Z,95030.50
2018-12-17T14:38:07.221Z,95031.49
2018-12-17T14:40:33.747Z,95034.52
2018-12-17T14:43:00.296Z,95035.94
2018-12-17T14:45:26.793Z,95037.11
2018-12-17T14:47:53.225Z,95046.64
2018-12-17T14:50:19.666Z,95042.80
2018-12-17T14:52:45.988Z,95043.36
2018-12-17T14:55:12.557Z,95047.58
2018-12-17T14:57:39.027Z,95058.58
2018-12-17T15:00:09.820Z,95067.73
2018-12-17T15:02:36.224Z,95064.36
2018-12-17T15:05:02.714Z,95070.74
2018-12-17T15:07:29.891Z,95070.06
2018-12-17T15:09:55.654Z,95074.15
2018-12-17T15:12:22.036Z,95080.70
2018-12-17T15:14:48.386Z,95084.88
2018-12-17T15:17:14.895Z,95082.25
2018-12-17T15:19:41.272Z,95080.91
2018-12-17T15:22:07.655Z,95081.52
2018-12-17T15:24:40.382Z,95084.98
2018-12-17T15:27:01.703Z,95086.59
2018-12-17T15:29:28.026Z,95085.45
2018-12-17T15:31:54.387Z,95085.39
2018-12-17T15:34:20.795Z,95091.03
2018-12-17T15:36:47.209Z,95086.95
2018-12-17T15:39:13.550Z,95089.18
2018-12-17T15:41:39.963Z,95081.98
2018-12-17T15:44:06.372Z,95091.86
2018-12-17T15:46:32.720Z,95083.88
2018-12-17T15:48:59.134Z,95089.06
2018-12-17T15:51:25.501Z,95091.61
2018-12-17T15:53:51.897Z,95096.61
2018-12-17T15:56:18.273Z,95093.67
2018-12-17T15:58:44.745Z,95092.08
2018-12-17T16:01:11.069Z,95093.69
2018-12-17T16:03:37.672Z,95100.41
2018-12-17T16:06:04.097Z,95100.03
2018-12-17T16:08:30.577Z,95099.89
2018-12-17T16:10:56.891Z,95110.58
2018-12-17T16:13:23.304Z,95109.18
2018-12-17T16:15:49.735Z,95112.39
2018-12-17T16:18:16.155Z,95123.03
2018-12-17T16:20:42.540Z,95112.55
2018-12-17T16:23:08.856Z,95132.08
2018-12-17T16:25:35.260Z,95127.64
2018-12-17T16:28:01.703Z,95136.59
2018-12-17T16:30:28.032Z,95135.54
2018-12-17T16:32:54.457Z,95137.20
2018-12-17T16:35:20.859Z,95142.31
2018-12-17T16:37:47.222Z,95135.55
2018-12-17T16:40:13.640Z,95137.29
2018-12-17T16:42:40.126Z,95140.72
2018-12-17T16:45:06.582Z,95142.62
2018-12-17T16:47:32.904Z,95154.82
2018-12-17T16:49:59.306Z,95157.77
2018-12-17T16:52:25.655Z,95156.98
2018-12-17T16:54:52.057Z,95152.86
2018-12-17T16:57:18.401Z,95160.05
2018-12-17T16:59:44.769Z,95166.39
2018-12-17T17:02:11.167Z,95174.65
2018-12-17T17:04:37.507Z,95178.42
2018-12-17T17:07:06.231Z,95183.80
2018-12-17T17:09:32.873Z,95185.34
2018-12-17T17:11:59.224Z,95186.17
2018-12-17T17:14:25.560Z,95191.91
2018-12-17T17:16:51.977Z,95196.03
2018-12-17T17:19:18.340Z,95189.36
2018-12-17T17:21:44.707Z,95195.00
2018-12-17T17:24:11.080Z,95196.18
2018-12-17T17:26:37.514Z,95196.87
2018-12-17T17:29:03.933Z,95193.84
2018-12-17T17:31:30.370Z,95193.98
2018-12-17T17:33:56.813Z,95190.72
2018-12-17T17:36:23.146Z,95188.97
2018-12-17T17:38:49.508Z,95186.38
2018-12-17T17:41:15.903Z,95185.59
2018-12-17T17:43:42.261Z,95188.19
2018-12-17T17:46:08.594Z,95194.53
2018-12-17T17:48:34.966Z,95196.98
2018-12-17T17:51:01.328Z,95192.20
2018-12-17T17:53:27.762Z,95194.89
2018-12-17T17:55:54.128Z,95192.58
2018-12-17T17:58:20.529Z,95195.87
2018-12-17T18:00:46.920Z,95189.88
2018-12-17T18:03:13.407Z,95196.01
2018-12-17T18:05:39.715Z,95196.96
2018-12-17T18:08:06.121Z,95196.46
2018-12-17T18:10:32.485Z,95198.25
2018-12-17T18:12:58.823Z,95204.58
2018-12-17T18:15:25.176Z,95211.73
2018-12-17T18:17:51.535Z,95213.59
2018-12-17T18:20:17.899Z,95217.11
2018-12-17T18:22:44.353Z,95217.22
2018-12-17T18:25:10.745Z,95224.87
2018-12-17T18:27:37.223Z,95225.90
2018-12-17T18:30:03.644Z,95228.98
2018-12-17T18:32:30.032Z,95222.86
2018-12-17T18:34:56.378Z,95227.66
2018-12-17T18:37:22.770Z,95222.97
2018-12-17T18:39:49.105Z,95225.91
2018-12-17T18:42:15.575Z,95228.03
2018-12-17T18:44:42.044Z,95225.56
2018-12-17T18:47:08.427Z,95227.45
2018-12-17T18:49:34.799Z,95226.16
2018-12-17T18:52:01.190Z,95228.38
2018-12-17T18:54:27.768Z,95222.63
2018-12-17T18:56:54.100Z,95228.03
2018-12-17T18:59:20.490Z,95228.63
2018-12-17T19:01:46.927Z,95230.37
2018-12-17T19:04:13.435Z,95224.63
2018-12-17T19:06:39.705Z,95225.69
2018-12-17T19:09:06.093Z,95236.57
2018-12-17T19:11:32.457Z,95241.27
2018-12-17T19:13:58.915Z,95244.08
2018-12-17T19:16:25.284Z,95245.73
2018-12-17T19:18:51.620Z,95253.34
2018-12-17T19:21:18.018Z,95249.11
2018-12-17T19:23:44.353Z,95250.77
2018-12-17T19:26:10.819Z,95253.05
2018-12-17T19:28:37.174Z,95252.22
2018-12-17T19:31:03.578Z,95252.67
2018-12-17T19:33:29.986Z,95252.44
2018-12-17T19:35:56.410Z,95252.41
2018-12-17T19:38:22.743Z,95255.20
2018-12-17T19:40:49.202Z,95250.98
2018-12-17T19:43:15.638Z,95259.20
2018-12-17T19:45:41.967Z,95261.78
2018-12-17T19:48:08.453Z,95258.59
2018-12-17T19:50:34.834Z,95258.10
2018-12-17T19:53:01.190Z,95265.95
2018-12-17T19:55:27.559Z,95270.14
2018-12-17T19:57:53.911Z,95274.46
2018-12-17T20:00:20.290Z,95274.22
2018-12-17T20:02:47.086Z,95273.17
2018-12-17T20:05:13.296Z,95279.69
2018-12-17T20:07:39.633Z,95277.20
2018-12-17T20:10:06.023Z,95271.34
2018-12-17T20:12:32.360Z,95272.05
2018-12-17T20:14:58.804Z,95274.91
2018-12-17T20:17:25.175Z,95280.14
2018-12-17T20:19:52.876Z,95275.56
2018-12-17T20:22:17.984Z,95277.41
2018-12-17T20:24:44.360Z,95279.83
2018-12-17T20:27:10.886Z,95286.03
2018-12-17T20:29:37.249Z,95292.24
2018-12-17T20:32:03.632Z,95287.53
2018-12-17T20:34:30.014Z,95284.74
2018-12-17T20:36:56.410Z,95283.63
2018-12-17T20:39:22.811Z,95290.48
2018-12-17T20:41:49.153Z,95296.32
2018-12-17T20:44:15.504Z,95302.73
2018-12-17T20:46:41.903Z,95312.92
2018-12-17T20:49:08.365Z,95317.37
2018-12-17T20:51:34.733Z,95316.67
2018-12-17T20:54:01.104Z,95315.93
2018-12-17T20:56:27.436Z,95315.93
2018-12-17T20:58:53.857Z,95321.81
2018-12-17T21:01:20.199Z,95323.31
2018-12-17T21:03:46.677Z,95327.27
2018-12-17T21:06:12.980Z,95331.09
2018-12-17T21:08:39.372Z,95325.67
2018-12-17T21:11:05.695Z,95324.88
2018-12-17T21:13:32.050Z,95332.02
2018-12-17T21:15:58.442Z,95337.44
2018-12-17T21:18:24.808Z,95341.54
2018-12-17T21:20:51.184Z,95341.75
2018-12-17T21:23:17.585Z,95338.02
2018-12-17T21:25:43.935Z,95334.09
2018-12-17T21:28:10.367Z,95341.30
2018-12-17T21:30:36.798Z,95346.28
2018-12-17T21:33:06.684Z,95355.50
2018-12-17T21:35:29.530Z,95356.32
2018-12-17T21:37:55.943Z,95347.70
2018-12-17T21:40:22.315Z,95348.32
2018-12-17T21:42:48.691Z,95337.91
2018-12-17T21:45:15.035Z,95341.89
2018-12-17T21:47:41.437Z,95342.90
2018-12-17T21:50:07.808Z,95343.59
2018-12-17T21:52:34.225Z,95346.34
2018-12-17T21:55:00.626Z,95349.66
2018-12-17T21:57:26.999Z,95336.67
2018-12-17T21:59:53.348Z,95329.63
2018-12-17T22:02:19.824Z,95332.91
2018-12-17T22:04:46.161Z,95333.40
2018-12-17T22:07:12.491Z,95339.67
2018-12-17T22:09:38.820Z,95335.41
2018-12-17T22:12:05.214Z,95330.72
2018-12-17T22:14:31.567Z,95326.10
2018-12-17T22:16:57.952Z,95327.80
2018-12-17T22:19:24.284Z,95322.10
2018-12-17T22:21:50.688Z,95320.69
2018-12-17T22:24:17.017Z,95333.04
2018-12-17T22:26:43.350Z,95333.80
2018-12-17T22:29:09.727Z,95341.79
2018-12-17T22:31:36.059Z,95340.52
2018-12-17T22:34:02.494Z,95339.59
2018-12-17T22:36:28.864Z,95345.66
2018-12-17T22:38:55.260Z,95341.71
2018-12-17T22:41:21.594Z,95340.63
2018-12-17T22:43:48.040Z,95331.84
2018-12-17T22:46:14.412Z,95340.56
2018-12-17T22:48:40.806Z,95341.34
2018-12-17T22:51:07.168Z,95343.87
2018-12-17T22:53:33.599Z,95340.09
2018-12-17T22:56:00.005Z,95332.05
2018-12-17T22:58:26.413Z,95322.22
2018-12-17T23:00:52.743Z,95317.84
2018-12-17T23:03:19.103Z,95320.98
2018-12-17T23:05:45.460Z,95321.02
2018-12-17T23:08:11.824Z,95316.21
2018-12-17T23:10:38.194Z,95311.82
2018-12-17T23:13:04.599Z,95318.50
2018-12-17T23:15:31.022Z,95323.84
2018-12-17T23:17:57.471Z,95324.30
2018-12-17T23:20:23.760Z,95322.02
2018-12-17T23:22:50.171Z,95295.15
2018-12-17T23:25:16.604Z,95325.59
2018-12-17T23:27:43.059Z,95325.04
2018-12-17T23:30:09.449Z,95321.84
2018-12-17T23:32:35.781Z,95315.22
2018-12-17T23:35:02.242Z,95313.89
2018-12-17T23:37:28.523Z,95314.43
2018-12-17T23:39:54.953Z,95311.94
2018-12-17T23:42:21.394Z,95323.71
2018-12-17T23:44:47.663Z,95313.06
2018-12-17T23:47:14.091Z,95311.23
2018-12-17T23:49:40.404Z,95305.19
2018-12-17T23:52:06.835Z,95300.96
2018-12-17T23:54:33.165Z,95308.67
2018-12-17T23:56:59.538Z,95305.77
2018-12-17T23:59:25.941Z,95304.11
